Taylor, North Dakota
Current Conditions -  °F | °C
As of 2:56 PM on Sunday 23 Nov 2014 (Local Time) from KDIK Reporting Station
Overcast Overcast  
Wind Chill:   Ceiling: 2300
Heat Index: 24°   Visibility: 10mi
Dew Point: 16°   Wind: 31mph
Humidity: 71%   Direction: 310°NW
Pressure: 29.66"   Gusts: 39mph
Location:  46.9°N, 102.43°W
Report Text: KDIK 232156Z AUTO 31027G34KT 10SM OVC023 M04/M09 A2966 RMK AO2 PK WND 30037/2104 SLP069 T10441089
Loading
Personal Weather Stations






























Interactive Weather Map New forecast layout! Learn more

10-Day Weather Forecast

Advertisements
Track Severe Weather on mobile